createdAt,value
2019-02-24T00:02:08.702Z,103011.39
2019-02-24T00:04:35.614Z,103005.05
2019-02-24T00:07:02.570Z,103009.06
2019-02-24T00:09:29.495Z,103006.19
2019-02-24T00:11:56.458Z,103005.31
2019-02-24T00:14:23.354Z,103000.00
2019-02-24T00:16:50.299Z,102998.31
2019-02-24T00:19:17.209Z,103004.02
2019-02-24T00:21:44.163Z,103009.58
2019-02-24T00:24:11.067Z,103010.20
2019-02-24T00:26:38.053Z,103010.69
2019-02-24T00:29:04.963Z,103009.61
2019-02-24T00:31:32.178Z,103005.73
2019-02-24T00:33:59.127Z,103012.73
2019-02-24T00:36:26.035Z,103005.42
2019-02-24T00:38:52.971Z,103006.04
2019-02-24T00:41:19.922Z,103003.42
2019-02-24T00:43:46.887Z,103007.31
2019-02-24T00:46:13.812Z,103006.64
2019-02-24T00:48:40.779Z,102999.57
2019-02-24T00:51:07.672Z,102997.05
2019-02-24T00:53:34.642Z,103002.58
2019-02-24T00:56:01.546Z,102999.59
2019-02-24T00:58:28.511Z,103004.76
2019-02-24T01:00:55.440Z,103002.03
2019-02-24T01:03:22.376Z,103011.44
2019-02-24T01:05:49.282Z,103015.16
2019-02-24T01:08:16.264Z,103024.33
2019-02-24T01:10:43.173Z,103023.92
2019-02-24T01:13:10.108Z,103028.77
2019-02-24T01:15:36.994Z,103019.22
2019-02-24T01:18:03.923Z,103012.35
2019-02-24T01:20:30.820Z,103014.52
2019-02-24T01:22:57.753Z,103011.33
2019-02-24T01:25:24.642Z,103011.06
2019-02-24T01:27:51.605Z,103010.80
2019-02-24T01:30:18.531Z,103010.51
2019-02-24T01:32:45.469Z,103004.47
2019-02-24T01:35:12.396Z,102994.05
2019-02-24T01:37:39.324Z,102996.11
2019-02-24T01:40:06.619Z,102988.87
2019-02-24T01:42:33.658Z,102989.28
2019-02-24T01:45:00.605Z,102985.64
2019-02-24T01:47:27.503Z,102995.73
2019-02-24T01:49:54.423Z,102992.97
2019-02-24T01:52:21.303Z,102995.27
2019-02-24T01:54:48.215Z,102986.09
2019-02-24T01:57:15.200Z,102987.91
2019-02-24T01:59:42.159Z,102986.67
2019-02-24T02:02:09.081Z,102988.05
2019-02-24T02:04:36.005Z,102989.28
2019-02-24T02:07:02.913Z,102979.49
2019-02-24T02:09:29.832Z,102988.34
2019-02-24T02:11:56.732Z,102995.19
2019-02-24T02:14:23.638Z,102987.97
2019-02-24T02:16:50.548Z,102990.17
2019-02-24T02:19:17.472Z,102987.64
2019-02-24T02:21:44.346Z,102978.63
2019-02-24T02:24:11.273Z,102979.19
2019-02-24T02:26:38.230Z,102976.77
2019-02-24T02:29:05.279Z,102982.33
2019-02-24T02:31:32.170Z,102966.15
2019-02-24T02:33:59.138Z,102962.63
2019-02-24T02:36:26.063Z,102961.81
2019-02-24T02:38:52.933Z,102963.98
2019-02-24T02:41:19.843Z,102963.52
2019-02-24T02:43:46.754Z,102967.12
2019-02-24T02:46:13.642Z,102960.58
2019-02-24T02:48:40.621Z,102969.09
2019-02-24T02:51:08.286Z,102968.95
2019-02-24T02:53:35.230Z,102970.13
2019-02-24T02:56:02.159Z,102978.69
2019-02-24T02:58:29.038Z,102977.14
2019-02-24T03:00:55.979Z,102981.94
2019-02-24T03:03:22.928Z,102982.20
2019-02-24T03:06:06.824Z,102976.73
2019-02-24T03:08:50.358Z,102979.66
2019-02-24T03:11:17.278Z,102971.02
2019-02-24T03:13:44.215Z,102968.11
2019-02-24T03:16:11.348Z,102968.59
2019-02-24T03:18:38.266Z,102972.56
2019-02-24T03:21:05.208Z,102968.38
2019-02-24T03:23:32.607Z,102972.81
2019-02-24T03:25:59.597Z,102968.95
2019-02-24T03:28:26.543Z,102977.46
2019-02-24T03:30:53.469Z,102982.61
2019-02-24T03:33:20.369Z,102976.67
2019-02-24T03:35:47.294Z,102975.83
2019-02-24T03:38:14.177Z,102969.80
2019-02-24T03:40:41.172Z,102971.14
2019-02-24T03:43:08.237Z,102970.08
2019-02-24T03:45:35.170Z,102968.98
2019-02-24T03:48:02.104Z,102965.94
2019-02-24T03:50:29.000Z,102969.39
2019-02-24T03:52:55.883Z,102978.00
2019-02-24T03:55:22.999Z,102988.87
2019-02-24T03:57:49.914Z,102990.88
2019-02-24T04:00:16.811Z,102987.99
2019-02-24T04:02:43.752Z,102991.63
2019-02-24T04:05:10.632Z,102990.34
2019-02-24T04:07:37.567Z,102990.41
2019-02-24T04:10:04.812Z,102991.30
2019-02-24T04:12:31.752Z,102981.08
2019-02-24T04:14:58.626Z,102986.70
2019-02-24T04:17:25.539Z,102981.80
2019-02-24T04:19:52.418Z,102979.63
2019-02-24T04:22:19.326Z,102980.61
2019-02-24T04:24:46.206Z,102976.08
2019-02-24T04:27:13.171Z,102978.59
2019-02-24T04:29:40.076Z,102980.26
2019-02-24T04:32:07.346Z,102979.00
2019-02-24T04:34:34.270Z,102969.33
2019-02-24T04:37:01.210Z,102972.08
2019-02-24T04:39:28.085Z,102975.28
2019-02-24T04:41:55.059Z,102973.94
2019-02-24T04:44:21.948Z,102976.95
2019-02-24T04:46:48.896Z,102982.52
2019-02-24T04:49:16.176Z,102984.62
2019-02-24T04:51:43.118Z,102987.83
2019-02-24T04:54:10.025Z,102979.95
2019-02-24T04:56:36.942Z,102978.85
2019-02-24T04:59:03.818Z,102976.60
2019-02-24T05:01:30.738Z,102978.61
2019-02-24T05:03:57.629Z,102968.70
2019-02-24T05:06:24.531Z,102966.72
2019-02-24T05:08:51.469Z,102964.77
2019-02-24T05:11:18.351Z,102966.63
2019-02-24T05:13:45.311Z,102963.42
2019-02-24T05:16:12.204Z,102964.05
2019-02-24T05:18:39.111Z,102966.61
2019-02-24T05:21:06.026Z,102979.18
2019-02-24T05:23:33.325Z,102972.81
2019-02-24T05:26:00.265Z,102976.59
2019-02-24T05:28:27.226Z,102976.45
2019-02-24T05:30:54.142Z,102990.67
2019-02-24T05:33:21.073Z,102985.04
2019-02-24T05:35:47.976Z,102901.94
2019-02-24T05:38:14.885Z,102986.09
2019-02-24T05:40:41.777Z,102984.50
2019-02-24T05:43:08.706Z,102993.33
2019-02-24T05:45:35.608Z,103001.39
2019-02-24T05:48:02.532Z,103002.99
2019-02-24T05:50:29.429Z,102995.24
2019-02-24T05:52:56.340Z,103002.02
2019-02-24T05:55:23.240Z,103001.22
2019-02-24T05:57:50.166Z,103003.32
2019-02-24T06:00:17.073Z,103007.80
2019-02-24T06:02:44.033Z,103015.59
2019-02-24T06:05:11.029Z,103003.37
2019-02-24T06:07:38.122Z,103010.55
2019-02-24T06:10:05.455Z,103011.12
2019-02-24T06:12:32.475Z,103008.88
2019-02-24T06:14:59.368Z,103007.88
2019-02-24T06:17:26.329Z,103013.56
2019-02-24T06:19:53.260Z,103004.59
2019-02-24T06:22:20.170Z,102999.84
2019-02-24T06:24:47.117Z,103001.12
2019-02-24T06:27:14.050Z,103003.80
2019-02-24T06:29:41.015Z,103004.66
2019-02-24T06:32:07.901Z,103010.55
2019-02-24T06:34:34.826Z,103016.67
2019-02-24T06:37:01.719Z,103018.03
2019-02-24T06:39:28.678Z,103015.76
2019-02-24T06:41:55.728Z,103023.11
2019-02-24T06:44:22.771Z,103026.59
2019-02-24T06:46:49.832Z,103019.15
2019-02-24T06:49:16.891Z,103016.81
2019-02-24T06:51:43.802Z,103023.11
2019-02-24T06:54:10.781Z,103020.05
2019-02-24T06:56:37.916Z,103029.38
2019-02-24T06:59:06.552Z,103026.56
2019-02-24T07:01:33.431Z,103023.89
2019-02-24T07:04:00.373Z,103019.72
2019-02-24T07:06:27.272Z,103012.64
2019-02-24T07:08:54.209Z,103013.20
2019-02-24T07:11:21.130Z,103014.52
2019-02-24T07:13:48.130Z,103013.05
2019-02-24T07:16:15.038Z,103013.60
2019-02-24T07:18:41.992Z,103011.20
2019-02-24T07:21:09.110Z,103013.78
2019-02-24T07:23:36.341Z,103007.33
2019-02-24T07:26:03.356Z,103013.30
2019-02-24T07:28:30.447Z,103016.44
2019-02-24T07:30:57.374Z,103010.06
2019-02-24T07:33:24.295Z,103016.25
2019-02-24T07:35:51.192Z,103014.07
2019-02-24T07:38:18.119Z,103020.48
2019-02-24T07:40:44.998Z,103025.80
2019-02-24T07:43:11.890Z,103032.12
2019-02-24T07:45:38.912Z,103040.84
2019-02-24T07:48:05.782Z,103041.62
2019-02-24T07:50:32.697Z,103052.97
2019-02-24T07:52:59.608Z,103050.37
2019-02-24T07:55:26.535Z,103048.39
2019-02-24T07:57:53.442Z,103055.70
2019-02-24T08:00:20.488Z,103061.34
2019-02-24T08:02:47.561Z,103061.11
2019-02-24T08:05:14.660Z,103060.04
2019-02-24T08:07:41.676Z,103059.48
2019-02-24T08:10:08.622Z,103063.92
2019-02-24T08:12:35.522Z,103064.51
2019-02-24T08:15:02.772Z,103059.21
2019-02-24T08:17:29.674Z,103058.42
2019-02-24T08:19:56.620Z,103055.23
2019-02-24T08:22:23.536Z,103051.48
2019-02-24T08:24:50.489Z,103047.30
2019-02-24T08:27:17.423Z,103057.06
2019-02-24T08:29:44.342Z,103058.20
2019-02-24T08:32:11.223Z,103055.95
2019-02-24T08:34:38.162Z,103053.98
2019-02-24T08:37:05.044Z,103058.08
2019-02-24T08:39:31.955Z,103065.97
2019-02-24T08:41:58.852Z,103059.20
2019-02-24T08:44:25.786Z,103060.91
2019-02-24T08:46:52.679Z,103049.37
2019-02-24T08:49:19.633Z,103067.88
2019-02-24T08:51:46.580Z,103069.55
2019-02-24T08:54:13.467Z,103060.98
2019-02-24T08:56:40.413Z,103072.02
2019-02-24T08:59:07.293Z,103060.78
2019-02-24T09:01:35.226Z,103057.45
2019-02-24T09:04:02.158Z,103053.70
2019-02-24T09:06:29.085Z,103058.33
2019-02-24T09:08:56.091Z,103053.19
2019-02-24T09:11:23.055Z,103061.29
2019-02-24T09:13:50.767Z,103057.64
2019-02-24T09:16:17.882Z,103051.92
2019-02-24T09:18:44.807Z,103060.55
2019-02-24T09:21:11.770Z,103072.83
2019-02-24T09:23:38.677Z,103072.83
2019-02-24T09:26:05.601Z,103072.52
2019-02-24T09:28:32.766Z,103069.34
2019-02-24T09:31:01.095Z,103075.13
2019-02-24T09:33:28.309Z,103086.33
2019-02-24T09:35:55.270Z,103084.48
2019-02-24T09:38:22.198Z,103079.64
2019-02-24T09:40:49.407Z,103083.86
2019-02-24T09:43:16.507Z,103084.91
2019-02-24T09:45:43.498Z,103083.78
2019-02-24T09:48:10.491Z,103086.64
2019-02-24T09:50:37.547Z,103081.80
2019-02-24T09:53:04.479Z,103080.89
2019-02-24T09:55:31.433Z,103072.34
2019-02-24T09:57:58.593Z,103083.44
2019-02-24T10:00:25.630Z,103082.81
2019-02-24T10:02:52.555Z,103076.51
2019-02-24T10:05:19.706Z,103075.54
2019-02-24T10:07:46.648Z,103079.77
2019-02-24T10:10:13.822Z,103074.83
2019-02-24T10:12:40.777Z,103075.70
2019-02-24T10:15:07.689Z,103070.51
2019-02-24T10:17:34.636Z,103075.27
2019-02-24T10:20:01.549Z,103074.11
2019-02-24T10:22:28.487Z,103078.35
2019-02-24T10:24:58.799Z,103083.52
2019-02-24T10:27:25.751Z,103078.88
2019-02-24T10:29:52.673Z,103083.13
2019-02-24T10:32:19.622Z,103079.87
2019-02-24T10:34:46.570Z,103081.13
2019-02-24T10:37:13.510Z,103092.34
2019-02-24T10:39:40.453Z,103092.40
2019-02-24T10:42:07.433Z,103089.95
2019-02-24T10:44:34.383Z,103090.14
2019-02-24T10:47:02.335Z,103091.59
2019-02-24T10:49:29.517Z,103094.27
2019-02-24T10:51:56.477Z,103083.17
2019-02-24T10:54:23.451Z,103077.48
2019-02-24T10:56:50.405Z,103066.18
2019-02-24T10:59:17.319Z,103066.48
2019-02-24T11:01:44.362Z,103075.28
2019-02-24T11:04:11.270Z,103072.81
2019-02-24T11:06:38.215Z,103073.41
2019-02-24T11:09:05.956Z,103066.39
2019-02-24T11:11:32.873Z,103063.89
2019-02-24T11:13:59.862Z,103061.92
2019-02-24T11:16:26.764Z,103062.72
2019-02-24T11:18:53.699Z,103055.44
2019-02-24T11:21:20.718Z,103057.42
2019-02-24T11:23:48.111Z,103054.20
2019-02-24T11:26:15.014Z,103055.14
2019-02-24T11:28:41.991Z,103053.73
2019-02-24T11:31:09.290Z,103060.56
2019-02-24T11:33:36.252Z,103064.19
2019-02-24T11:36:03.192Z,103061.66
2019-02-24T11:38:30.132Z,103064.69
2019-02-24T11:40:57.202Z,103064.30
2019-02-24T11:43:26.178Z,103066.08
2019-02-24T11:45:53.085Z,103066.10
2019-02-24T11:48:20.041Z,103064.31
2019-02-24T11:50:46.954Z,103054.22
2019-02-24T11:53:13.881Z,103050.33
2019-02-24T11:55:40.765Z,103046.00
2019-02-24T11:58:07.799Z,103047.27
2019-02-24T12:00:34.682Z,103048.16
2019-02-24T12:03:01.652Z,103048.66
2019-02-24T12:05:28.720Z,103038.52
2019-02-24T12:07:55.707Z,103043.37
2019-02-24T12:10:22.623Z,103045.09
2019-02-24T12:12:49.657Z,103049.02
2019-02-24T12:15:16.568Z,103054.19
2019-02-24T12:17:43.556Z,103051.55
2019-02-24T12:20:10.554Z,103053.27
2019-02-24T12:22:37.469Z,103051.08
2019-02-24T12:25:04.768Z,103054.59
2019-02-24T12:27:31.761Z,103049.78
2019-02-24T12:29:58.717Z,103049.70
2019-02-24T12:32:25.618Z,103042.87
2019-02-24T12:34:52.553Z,103038.23
2019-02-24T12:37:19.459Z,103037.78
2019-02-24T12:39:46.431Z,103021.29
2019-02-24T12:42:13.387Z,103008.69
2019-02-24T12:44:40.371Z,103010.09
2019-02-24T12:47:07.375Z,103012.47
2019-02-24T12:49:34.354Z,103019.97
2019-02-24T12:52:01.234Z,103019.72
2019-02-24T12:54:28.281Z,103023.16
2019-02-24T12:56:55.235Z,103021.48
2019-02-24T12:59:22.220Z,103010.92
2019-02-24T13:01:49.119Z,103018.05
2019-02-24T13:04:16.119Z,103009.17
2019-02-24T13:06:43.037Z,103007.92
2019-02-24T13:09:09.995Z,102887.88
2019-02-24T13:11:37.032Z,102991.27
2019-02-24T13:14:03.989Z,102994.05
2019-02-24T13:16:30.919Z,102985.57
2019-02-24T13:18:57.975Z,102982.63
2019-02-24T13:21:24.889Z,102986.35
2019-02-24T13:23:52.860Z,102983.58
2019-02-24T13:26:19.855Z,102986.01
2019-02-24T13:28:50.486Z,102991.80
2019-02-24T13:31:15.608Z,102990.05
2019-02-24T13:33:42.578Z,102983.53
2019-02-24T13:36:09.529Z,102977.80
2019-02-24T13:38:36.433Z,102976.17
2019-02-24T13:41:03.406Z,102977.88
2019-02-24T13:43:30.317Z,102981.84
2019-02-24T13:45:57.274Z,102976.51
2019-02-24T13:48:24.800Z,102983.13
2019-02-24T13:50:51.766Z,102986.19
2019-02-24T13:53:18.687Z,102989.34
2019-02-24T13:55:45.662Z,102983.58
2019-02-24T13:58:12.590Z,102979.81
2019-02-24T14:00:39.545Z,102980.23
2019-02-24T14:03:06.481Z,102980.77
2019-02-24T14:05:33.437Z,102981.38
2019-02-24T14:08:00.385Z,102984.34
2019-02-24T14:10:27.388Z,102978.41
2019-02-24T14:12:54.366Z,102983.91
2019-02-24T14:15:21.388Z,102972.86
2019-02-24T14:17:48.784Z,102974.48
2019-02-24T14:20:15.731Z,102975.01
2019-02-24T14:22:42.635Z,102978.13
2019-02-24T14:25:09.643Z,102972.05
2019-02-24T14:27:36.565Z,102968.69
2019-02-24T14:30:04.752Z,102961.31
2019-02-24T14:32:33.124Z,102922.75
2019-02-24T14:35:00.462Z,102976.55
2019-02-24T14:37:27.456Z,102968.82
2019-02-24T14:39:54.452Z,102971.70
2019-02-24T14:42:21.392Z,102971.22
2019-02-24T14:44:48.411Z,102984.70
2019-02-24T14:47:15.356Z,102983.34
2019-02-24T14:49:42.254Z,102981.95
2019-02-24T14:52:09.649Z,102983.80
2019-02-24T14:54:36.596Z,102977.44
2019-02-24T14:57:03.653Z,102982.36
2019-02-24T14:59:30.560Z,102982.87
2019-02-24T15:01:57.497Z,102979.59
2019-02-24T15:04:24.604Z,102977.53
2019-02-24T15:06:51.568Z,102983.16
2019-02-24T15:09:18.462Z,102983.00
2019-02-24T15:11:45.411Z,102979.66
2019-02-24T15:14:12.312Z,102978.81
2019-02-24T15:16:39.825Z,102985.77
2019-02-24T15:19:06.739Z,102995.98
2019-02-24T15:21:33.693Z,102991.30
2019-02-24T15:26:41.101Z,102993.73
2019-02-24T15:29:08.031Z,102987.93
2019-02-24T15:31:34.980Z,102977.62
2019-02-24T15:34:01.876Z,102976.17
2019-02-24T15:36:28.836Z,102967.56
2019-02-24T15:38:55.763Z,102966.25
2019-02-24T15:41:29.686Z,102969.42
2019-02-24T15:43:52.614Z,102962.03
2019-02-24T15:46:20.110Z,102969.03
2019-02-24T15:48:47.028Z,102976.11
2019-02-24T15:51:13.996Z,102972.14
2019-02-24T15:53:41.025Z,102974.37
2019-02-24T15:56:07.910Z,102973.54
2019-02-24T15:58:35.260Z,102974.41
2019-02-24T16:01:02.444Z,102978.59
2019-02-24T16:03:29.417Z,102976.42
2019-02-24T16:05:56.320Z,102973.34
2019-02-24T16:08:23.241Z,102981.70
2019-02-24T16:10:53.050Z,102975.19
2019-02-24T16:13:20.239Z,102975.73
2019-02-24T16:15:47.207Z,102967.33
2019-02-24T16:18:14.255Z,102965.87
2019-02-24T16:20:41.319Z,102966.72
2019-02-24T16:23:08.253Z,102966.95
2019-02-24T16:25:35.287Z,102968.94
2019-02-24T16:28:02.391Z,102973.34
2019-02-24T16:30:29.398Z,102970.28
2019-02-24T16:32:56.365Z,102974.73
2019-02-24T16:35:23.439Z,102965.19
2019-02-24T16:37:50.461Z,102963.10
2019-02-24T16:40:17.703Z,102961.86
2019-02-24T16:42:44.649Z,102972.37
2019-02-24T16:45:11.848Z,102978.06
2019-02-24T16:47:39.033Z,102982.89
2019-02-24T16:50:07.163Z,102974.14
2019-02-24T16:52:34.226Z,102975.86
2019-02-24T16:55:01.203Z,102975.40
2019-02-24T16:57:28.273Z,102978.45
2019-02-24T16:59:55.222Z,102977.53
2019-02-24T17:02:23.037Z,102979.64
2019-02-24T17:04:50.249Z,102989.20
2019-02-24T17:07:17.216Z,102980.74
2019-02-24T17:09:44.169Z,102986.30
2019-02-24T17:12:11.135Z,102990.55
2019-02-24T17:14:38.106Z,102998.20
2019-02-24T17:17:08.461Z,103007.66
2019-02-24T17:19:38.430Z,103008.56
2019-02-24T17:22:05.743Z,103018.66
2019-02-24T17:24:32.762Z,103018.53
2019-02-24T17:26:59.750Z,103016.22
2019-02-24T17:29:26.787Z,103016.11
2019-02-24T17:31:53.764Z,103017.63
2019-02-24T17:34:20.724Z,103021.16
2019-02-24T17:36:47.677Z,103021.86
2019-02-24T17:39:14.811Z,103020.46
2019-02-24T17:41:41.796Z,103023.02
2019-02-24T17:44:08.790Z,103018.72
2019-02-24T17:46:35.790Z,103015.62
2019-02-24T17:49:02.807Z,103015.45
2019-02-24T17:51:29.725Z,103023.67
2019-02-24T17:53:56.716Z,103024.39
2019-02-24T17:56:23.613Z,103019.01
2019-02-24T17:58:59.803Z,103022.27
2019-02-24T18:01:28.269Z,103022.59
2019-02-24T18:04:00.206Z,103017.07
2019-02-24T18:06:33.767Z,103016.70
2019-02-24T18:09:06.437Z,103021.92
2019-02-24T18:11:35.875Z,103021.41
2019-02-24T18:14:06.987Z,103020.53
2019-02-24T18:16:38.202Z,103023.96
2019-02-24T18:19:11.773Z,103029.48
2019-02-24T18:21:40.626Z,103040.91
2019-02-24T18:24:07.677Z,103021.74
2019-02-24T18:26:34.587Z,103023.56
2019-02-24T18:29:01.549Z,103024.84
2019-02-24T18:31:28.462Z,103024.62
2019-02-24T18:33:55.385Z,103014.92
2019-02-24T18:36:22.300Z,103012.23
2019-02-24T18:38:49.319Z,103014.36
2019-02-24T18:41:16.273Z,103011.73
2019-02-24T18:43:45.576Z,103001.38
2019-02-24T18:46:12.532Z,103002.03
2019-02-24T18:48:58.762Z,102998.12
2019-02-24T18:51:42.450Z,102948.84
2019-02-24T18:54:09.872Z,102892.05
2019-02-24T18:56:36.789Z,103013.30
2019-02-24T18:59:03.863Z,103003.58
2019-02-24T19:01:30.780Z,103004.01
2019-02-24T19:03:58.684Z,103001.11
2019-02-24T19:06:25.591Z,102998.27
2019-02-24T19:09:03.691Z,102993.44
2019-02-24T19:11:34.010Z,102990.02
2019-02-24T19:17:31.875Z,102982.89
2019-02-24T19:24:24.294Z,102978.70
2019-02-24T19:26:54.519Z,102982.98
2019-02-24T19:29:22.704Z,102977.70
2019-02-24T19:31:54.755Z,102976.30
2019-02-24T19:34:21.700Z,102971.78
2019-02-24T19:36:48.649Z,102975.69
2019-02-24T19:39:15.885Z,102973.09
2019-02-24T19:41:42.830Z,102973.01
2019-02-24T19:44:10.312Z,102964.27
2019-02-24T19:46:37.368Z,102969.77
2019-02-24T19:49:04.296Z,102964.89
2019-02-24T19:51:31.190Z,102969.09
2019-02-24T19:53:58.126Z,102980.19
2019-02-24T19:56:25.070Z,102985.97
2019-02-24T19:58:51.992Z,102999.81
2019-02-24T20:01:19.463Z,103003.36
2019-02-24T20:03:46.443Z,102999.23
2019-02-24T20:06:13.415Z,102998.72
2019-02-24T20:08:40.318Z,102990.88
2019-02-24T20:11:07.242Z,102997.81
2019-02-24T20:13:34.186Z,102999.41
2019-02-24T20:16:01.137Z,102992.09
2019-02-24T20:18:28.333Z,102994.55
2019-02-24T20:20:55.297Z,103010.45
2019-02-24T20:23:22.211Z,103005.16
2019-02-24T20:25:49.276Z,103012.32
2019-02-24T20:28:16.253Z,103009.98
2019-02-24T20:30:43.190Z,103021.87
2019-02-24T20:33:11.966Z,103020.47
2019-02-24T20:35:38.928Z,103026.41
2019-02-24T20:38:06.100Z,103025.12
2019-02-24T20:40:33.082Z,103029.92
2019-02-24T20:43:00.047Z,103034.17
2019-02-24T20:45:29.054Z,102980.58
2019-02-24T20:47:55.929Z,103040.85
2019-02-24T20:50:22.946Z,103036.50
2019-02-24T20:52:49.869Z,103042.48
2019-02-24T20:55:16.816Z,103044.56
2019-02-24T20:57:43.714Z,103051.35
2019-02-24T21:00:19.709Z,103055.98
2019-02-24T21:02:46.624Z,103055.56
2019-02-24T21:05:13.546Z,103049.28
2019-02-24T21:07:40.490Z,103049.84
2019-02-24T21:10:08.227Z,103054.16
2019-02-24T21:12:35.160Z,103058.20
2019-02-24T21:15:03.719Z,103049.33
2019-02-24T21:17:30.698Z,103045.43
2019-02-24T21:19:57.704Z,103051.22
2019-02-24T21:22:24.781Z,103052.52
2019-02-24T21:24:51.749Z,103055.21
2019-02-24T21:27:18.733Z,103055.20
2019-02-24T21:29:45.675Z,103055.72
2019-02-24T21:32:12.601Z,103054.59
2019-02-24T21:34:39.513Z,103058.45
2019-02-24T21:37:06.462Z,103054.98
2019-02-24T21:39:33.378Z,103056.02
2019-02-24T21:42:00.412Z,103051.24
2019-02-24T21:44:27.316Z,103051.35
2019-02-24T21:46:54.242Z,103052.89
2019-02-24T21:49:21.354Z,103058.86
2019-02-24T21:51:48.286Z,103063.41
2019-02-24T21:54:15.175Z,103066.80
2019-02-24T21:56:42.106Z,103066.81
2019-02-24T21:59:09.004Z,103068.98
2019-02-24T22:01:35.935Z,103073.94
2019-02-24T22:04:02.825Z,103077.87
2019-02-24T22:06:29.761Z,103074.97
2019-02-24T22:08:56.651Z,103073.97
2019-02-24T22:11:23.668Z,103063.48
2019-02-24T22:13:50.558Z,103064.29
2019-02-24T22:16:17.493Z,103063.48
2019-02-24T22:18:44.418Z,103073.41
2019-02-24T22:21:11.341Z,103077.11
2019-02-24T22:23:38.292Z,103067.39
2019-02-24T22:26:05.230Z,103075.44
2019-02-24T22:28:32.182Z,103074.56
2019-02-24T22:30:59.089Z,103078.27
2019-02-24T22:33:26.003Z,103075.64
2019-02-24T22:35:52.908Z,103077.30
2019-02-24T22:38:19.832Z,103075.28
2019-02-24T22:40:54.148Z,103074.78
2019-02-24T22:43:15.604Z,103069.72
2019-02-24T22:45:42.557Z,103074.78
2019-02-24T22:48:09.484Z,103085.57
2019-02-24T22:50:36.380Z,103083.05
2019-02-24T22:53:03.323Z,103087.66
2019-02-24T22:55:30.216Z,103082.83
2019-02-24T22:57:57.176Z,103082.33
2019-02-24T23:00:52.336Z,103081.74
2019-02-24T23:03:19.265Z,103084.88
2019-02-24T23:05:46.147Z,103082.21
2019-02-24T23:08:13.098Z,103081.97
2019-02-24T23:10:40.067Z,103087.98
2019-02-24T23:13:07.166Z,103084.97
2019-02-24T23:15:34.055Z,103084.43
2019-02-24T23:18:01.059Z,103083.52
2019-02-24T23:20:28.004Z,103085.05
2019-02-24T23:22:54.924Z,103083.97
2019-02-24T23:25:21.816Z,103074.78
2019-02-24T23:27:48.772Z,103072.78
2019-02-24T23:30:15.659Z,103072.40
2019-02-24T23:32:42.603Z,103071.31
2019-02-24T23:35:09.481Z,103069.98
2019-02-24T23:37:36.458Z,103062.80
2019-02-24T23:40:03.893Z,103065.14
2019-02-24T23:42:30.834Z,103063.25
2019-02-24T23:44:57.873Z,103067.97
2019-02-24T23:47:24.900Z,103073.39
2019-02-24T23:49:51.835Z,103073.91
2019-02-24T23:52:18.823Z,103076.38
2019-02-24T23:54:45.803Z,103068.47
2019-02-24T23:57:12.680Z,103071.67
2019-02-24T23:59:39.584Z,103070.41
